Time;durP1;ratioP1;P1;durP2;ratioP2;P2;SDS_P1;SDS_P2;PMS_P1;PMS_P2;Temp;Humidity;BMP_temperature;BMP_pressure;BME280_temperature;BME280_humidity;BME280_pressure;Samples;Min_cycle;Max_cycle;Signal;HPM_P1;HPM_P2
2021/06/13 00:02:07;;;;;;;8.93;2.67;;;;;;;11.47;66.21;101214.00;5019362;28;20180;-73
2021/06/13 00:04:32;;;;;;;9.40;2.60;;;;;;;11.44;66.39;101224.88;5002929;28;20180;-73
2021/06/13 00:06:58;;;;;;;9.30;2.90;;;;;;;11.39;66.27;101217.09;5018846;28;20199;-73
2021/06/13 00:09:23;;;;;;;8.67;2.60;;;;;;;11.35;67.10;101226.19;5018760;28;20663;-73
2021/06/13 00:11:49;;;;;;;8.60;3.20;;;;;;;11.33;67.30;101216.53;5002533;28;20196;-73
2021/06/13 00:14:15;;;;;;;9.17;2.77;;;;;;;11.20;67.70;101222.50;5018820;28;20173;-73
2021/06/13 00:16:40;;;;;;;9.67;3.13;;;;;;;11.22;67.82;101219.75;5036277;28;20210;-73
2021/06/13 00:19:05;;;;;;;11.10;3.17;;;;;;;11.22;67.34;101233.09;5018940;28;20180;-75
2021/06/13 00:21:31;;;;;;;9.13;2.63;;;;;;;11.20;67.64;101253.69;5018784;28;20180;-74
2021/06/13 00:23:56;;;;;;;13.17;2.93;;;;;;;11.20;68.04;101241.19;5018763;28;20180;-74
2021/06/13 00:26:21;;;;;;;12.00;3.30;;;;;;;11.17;67.77;101232.47;5002496;28;20191;-74
2021/06/13 00:28:47;;;;;;;7.10;2.70;;;;;;;11.24;67.21;101240.09;5018696;28;20173;-74
2021/06/13 00:31:12;;;;;;;10.73;3.20;;;;;;;11.25;67.17;101246.31;5018530;28;20279;-74
2021/06/13 00:33:37;;;;;;;7.73;3.30;;;;;;;11.24;67.10;101241.91;5036664;28;20195;-74
2021/06/13 00:36:03;;;;;;;5.00;2.50;;;;;;;11.18;67.77;101235.06;5002571;28;20184;-74
2021/06/13 00:38:28;;;;;;;8.77;3.00;;;;;;;11.21;67.34;101231.38;5001909;28;20196;-74
2021/06/13 00:40:54;;;;;;;9.70;2.77;;;;;;;11.15;67.90;101237.88;5002576;28;20183;-74
2021/06/13 00:43:19;;;;;;;7.60;3.27;;;;;;;11.17;67.81;101227.13;5002301;28;20537;-74
2021/06/13 00:45:44;;;;;;;6.83;2.63;;;;;;;11.18;67.60;101235.06;5002116;28;20180;-74
2021/06/13 00:48:10;;;;;;;9.60;3.03;;;;;;;11.16;67.90;101241.41;5001889;28;20211;-74
2021/06/13 00:50:48;;;;;;;12.80;2.67;;;;;;;11.20;67.66;101226.97;5018211;28;20200;-74
2021/06/13 00:53:14;;;;;;;6.20;2.60;;;;;;;11.30;68.00;101225.56;5018321;28;20230;-74
2021/06/13 00:55:39;;;;;;;10.60;3.03;;;;;;;11.43;66.48;101231.16;5018148;28;20184;-74
2021/06/13 00:58:06;;;;;;;8.33;2.83;;;;;;;11.57;66.39;101231.34;5035632;28;20214;-74
2021/06/13 01:00:32;;;;;;;10.83;2.70;;;;;;;11.60;66.07;101220.50;5017952;28;20647;-74
2021/06/13 01:02:58;;;;;;;8.83;3.00;;;;;;;11.59;66.27;101230.31;5017793;28;20176;-74
2021/06/13 01:05:25;;;;;;;9.87;2.43;;;;;;;11.64;65.88;101243.44;5001511;28;20176;-74
2021/06/13 01:08:15;;;;;;;10.30;2.30;;;;;;;11.59;66.68;101232.13;5017837;28;20286;-74
2021/06/13 01:10:56;;;;;;;8.60;2.47;;;;;;;11.57;67.03;101221.50;5035582;28;20192;-74
2021/06/13 01:13:31;;;;;;;10.03;3.10;;;;;;;11.54;67.13;101221.69;5018251;28;20599;-73
2021/06/13 01:16:04;;;;;;;11.30;2.73;;;;;;;11.59;66.36;101242.81;5018612;28;20160;-74
2021/06/13 01:18:36;;;;;;;10.13;2.67;;;;;;;11.56;67.05;101254.53;5018148;28;20196;-74
2021/06/13 01:21:07;;;;;;;10.40;3.00;;;;;;;11.51;67.09;101234.28;5001318;28;20171;-74
2021/06/13 01:23:51;;;;;;;14.93;2.80;;;;;;;11.51;66.83;101243.19;5017463;28;20300;-74
2021/06/13 01:26:42;;;;;;;8.87;2.40;;;;;;;11.47;67.12;101259.44;5035423;28;20156;-74
2021/06/13 01:29:11;;;;;;;12.37;2.80;;;;;;;11.47;67.12;101252.31;5001223;28;20180;-74
2021/06/13 01:31:40;;;;;;;15.43;3.47;;;;;;;11.49;66.98;101249.56;5017378;28;20204;-74
2021/06/13 01:34:32;;;;;;;10.27;3.30;;;;;;;11.41;67.69;101247.25;5017196;28;20219;-74
2021/06/13 01:36:59;;;;;;;8.93;2.70;;;;;;;11.42;67.33;101249.00;5009327;28;20215;-74
2021/06/13 01:39:28;;;;;;;10.23;2.77;;;;;;;11.40;67.62;101255.38;5017740;28;20678;-74
2021/06/13 01:41:54;;;;;;;8.83;2.57;;;;;;;11.30;68.60;101248.75;5001030;28;20179;-74
2021/06/13 01:44:20;;;;;;;8.70;2.43;;;;;;;11.25;68.33;101260.53;5001117;28;20228;-74
2021/06/13 01:46:48;;;;;;;9.23;2.53;;;;;;;11.25;68.64;101265.00;5018187;28;20265;-74
2021/06/13 01:49:14;;;;;;;11.80;2.70;;;;;;;11.18;68.71;101271.59;5021941;28;20168;-74
2021/06/13 01:51:40;;;;;;;14.47;2.73;;;;;;;11.19;68.59;101257.31;5045007;28;20227;-74
2021/06/13 01:54:09;;;;;;;9.70;2.90;;;;;;;11.11;69.77;101270.13;5024723;28;20188;-74
2021/06/13 01:59:07;;;;;;;16.53;3.03;;;;;;;11.16;68.88;101278.81;5052355;28;20281;-68
2021/06/13 02:01:32;;;;;;;11.37;2.53;;;;;;;11.15;69.44;101266.38;5036590;28;20213;-68
2021/06/13 02:03:59;;;;;;;12.33;2.57;;;;;;;11.09;69.69;101277.38;5019648;28;20179;-68
2021/06/13 02:06:39;;;;;;;11.17;2.73;;;;;;;11.01;70.00;101284.88;5036605;28;20690;-67
2021/06/13 02:09:06;;;;;;;9.77;3.10;;;;;;;11.03;70.36;101278.53;5016222;28;20164;-68
2021/06/13 02:11:32;;;;;;;11.93;2.97;;;;;;;11.16;69.75;101270.81;5016226;28;20261;-68
2021/06/13 02:13:58;;;;;;;13.30;2.83;;;;;;;11.02;69.79;101281.28;5016305;28;20642;-68
2021/06/13 02:16:24;;;;;;;6.80;2.73;;;;;;;11.01;70.48;101295.56;5016254;28;20168;-67
2021/06/13 02:18:50;;;;;;;7.37;2.27;;;;;;;10.92;70.90;101287.06;5016035;28;20188;-68
2021/06/13 02:21:17;;;;;;;16.20;3.27;;;;;;;10.96;70.67;101293.97;5016120;28;20192;-68
2021/06/13 02:23:43;;;;;;;8.27;2.60;;;;;;;10.94;70.84;101289.66;4999703;28;20173;-68
2021/06/13 02:26:09;;;;;;;12.50;2.77;;;;;;;10.88;71.35;101298.81;5015996;28;20176;-68
2021/06/13 02:28:38;;;;;;;10.23;2.37;;;;;;;10.94;71.08;101297.66;4999583;28;20565;-68
2021/06/13 02:31:06;;;;;;;6.80;2.50;;;;;;;10.93;71.27;101290.59;5016198;28;20195;-67
2021/06/13 02:33:32;;;;;;;8.50;2.73;;;;;;;11.05;70.66;101282.00;5016734;28;20267;-68
2021/06/13 02:35:59;;;;;;;8.80;2.73;;;;;;;11.05;70.83;101308.69;5033928;28;20247;-68
2021/06/13 02:38:25;;;;;;;10.43;2.93;;;;;;;11.05;70.63;101283.78;5016232;28;20291;-68
2021/06/13 02:40:50;;;;;;;8.60;2.73;;;;;;;11.15;70.87;101288.66;5016731;28;20207;-68
2021/06/13 02:43:16;;;;;;;10.40;2.60;;;;;;;11.16;70.62;101295.72;5036881;28;20168;-67
2021/06/13 02:45:42;;;;;;;11.40;2.90;;;;;;;11.14;70.23;101305.59;5044133;28;20263;-68
2021/06/13 02:48:07;;;;;;;8.93;2.70;;;;;;;11.19;70.30;101294.72;5042317;28;20195;-68
2021/06/13 02:50:33;;;;;;;13.47;3.60;;;;;;;11.24;70.33;101303.38;5025657;28;20212;-69
2021/06/13 02:53:06;;;;;;;11.73;2.87;;;;;;;11.38;70.24;101308.91;5033712;28;20176;-68
2021/06/13 02:55:51;;;;;;;10.40;2.80;;;;;;;11.46;70.01;101303.16;5015642;28;20204;-68
2021/06/13 02:58:35;;;;;;;13.70;3.10;;;;;;;11.44;69.73;101321.09;5015649;28;20291;-68
2021/06/13 03:01:01;;;;;;;16.27;2.80;;;;;;;11.41;70.16;101321.25;5015600;28;20172;-68
2021/06/13 03:03:27;;;;;;;13.00;2.67;;;;;;;11.38;70.00;101327.59;5014943;28;20587;-69
2021/06/13 03:05:54;;;;;;;9.50;2.97;;;;;;;11.28;70.78;101335.19;5033164;28;20195;-68
2021/06/13 03:08:20;;;;;;;11.43;3.00;;;;;;;11.25;70.64;101339.81;5015582;28;20192;-68
2021/06/13 03:10:47;;;;;;;7.87;2.77;;;;;;;11.19;71.07;101324.09;5015971;28;20200;-68
2021/06/13 03:13:12;;;;;;;13.07;3.23;;;;;;;11.15;71.39;101339.41;5015785;28;20573;-68
2021/06/13 03:15:39;;;;;;;10.43;2.83;;;;;;;11.12;72.13;101342.19;5015472;28;20176;-68
2021/06/13 03:18:05;;;;;;;15.03;2.53;;;;;;;11.07;71.34;101341.53;4998822;28;20298;-68
2021/06/13 03:20:30;;;;;;;12.87;2.97;;;;;;;11.11;72.24;101355.63;5015634;28;20231;-68
2021/06/13 03:22:56;;;;;;;9.47;2.87;;;;;;;11.03;72.25;101355.13;5033173;28;20260;-68
2021/06/13 03:25:23;;;;;;;14.83;2.90;;;;;;;10.96;72.52;101360.75;5015393;28;20176;-68
2021/06/13 03:27:48;;;;;;;11.37;3.07;;;;;;;10.97;72.40;101364.28;5015538;28;20188;-68
2021/06/13 03:30:14;;;;;;;11.47;2.90;;;;;;;10.98;72.67;101367.81;5015112;28;20210;-68
2021/06/13 03:32:40;;;;;;;11.77;3.20;;;;;;;11.03;71.86;101369.34;5015234;28;20322;-68
2021/06/13 03:35:06;;;;;;;12.20;3.10;;;;;;;10.99;72.52;101362.41;5032809;28;20176;-68
2021/06/13 03:37:33;;;;;;;12.30;2.63;;;;;;;11.08;72.40;101366.44;5015261;28;20187;-68
2021/06/13 03:39:59;;;;;;;9.73;2.80;;;;;;;11.14;71.81;101371.50;5015425;28;20161;-68
2021/06/13 03:42:24;;;;;;;6.63;2.50;;;;;;;11.24;70.80;101367.50;5015091;28;20259;-68
2021/06/13 03:44:50;;;;;;;13.00;2.40;;;;;;;11.46;69.96;101373.53;5015215;28;20751;-69
2021/06/13 03:47:15;;;;;;;11.87;3.03;;;;;;;11.44;70.35;101364.72;5015609;28;20200;-68
2021/06/13 03:49:41;;;;;;;10.47;2.63;;;;;;;11.45;70.32;101377.13;5015349;28;20176;-68
2021/06/13 03:52:07;;;;;;;9.70;2.67;;;;;;;11.47;70.52;101385.09;5033169;28;20177;-68
2021/06/13 03:54:32;;;;;;;11.27;2.33;;;;;;;11.56;70.03;101393.56;5015033;28;20172;-68
2021/06/13 03:56:59;;;;;;;10.53;2.60;;;;;;;11.65;69.67;101389.56;4998513;28;20218;-68
2021/06/13 03:59:26;;;;;;;8.73;1.90;;;;;;;11.92;68.66;101394.53;4998527;28;20250;-67
2021/06/13 04:01:52;;;;;;;8.53;1.87;;;;;;;12.02;68.42;101391.31;5014938;28;20548;-67
2021/06/13 04:04:18;;;;;;;9.90;2.00;;;;;;;12.08;67.61;101399.03;5032727;28;20164;-67
2021/06/13 04:06:45;;;;;;;10.43;2.13;;;;;;;12.23;67.09;101396.53;5014713;28;20525;-67
2021/06/13 04:09:11;;;;;;;9.10;2.37;;;;;;;12.27;66.95;101392.78;4998392;28;20176;-67
2021/06/13 04:11:37;;;;;;;7.33;1.97;;;;;;;12.47;66.55;101389.91;5014658;28;20672;-67
2021/06/13 04:14:06;;;;;;;7.93;2.10;;;;;;;12.46;66.12;101393.53;4998874;28;20172;-67
2021/06/13 04:16:31;;;;;;;8.90;1.93;;;;;;;12.28;66.71;101398.06;5035948;28;20180;-67
2021/06/13 04:18:56;;;;;;;8.13;2.30;;;;;;;12.37;65.92;101402.91;5036315;28;20180;-67
2021/06/13 04:21:22;;;;;;;7.83;2.30;;;;;;;12.29;65.38;101401.59;5035927;28;20179;-67
2021/06/13 04:23:49;;;;;;;7.90;1.97;;;;;;;12.24;66.42;101408.97;5036033;28;20199;-67
2021/06/13 04:26:16;;;;;;;6.17;2.20;;;;;;;12.26;66.77;101402.59;5018216;28;20184;-68
2021/06/13 04:28:42;;;;;;;9.00;2.10;;;;;;;12.25;67.29;101400.84;5018073;28;20214;-68
2021/06/13 04:31:11;;;;;;;7.23;1.97;;;;;;;12.32;66.45;101418.34;5018296;28;20287;-68
2021/06/13 04:33:37;;;;;;;7.87;1.93;;;;;;;12.39;67.12;101418.91;5035687;28;20172;-68
2021/06/13 04:36:03;;;;;;;8.30;2.33;;;;;;;12.42;66.75;101418.75;5036035;28;20211;-68
2021/06/13 04:38:28;;;;;;;6.70;2.30;;;;;;;12.67;66.22;101416.53;5017797;28;20207;-68
2021/06/13 04:40:54;;;;;;;9.13;1.90;;;;;;;12.73;66.08;101416.22;5036033;28;20164;-68
2021/06/13 04:43:19;;;;;;;6.03;1.80;;;;;;;12.77;65.96;101415.09;5035424;28;20255;-68
2021/06/13 04:45:45;;;;;;;5.73;1.83;;;;;;;12.81;65.70;101415.81;5001372;28;20187;-68
2021/06/13 04:48:10;;;;;;;6.37;1.77;;;;;;;12.84;65.86;101411.16;5035175;28;20250;-68
2021/06/13 04:50:39;;;;;;;8.40;2.30;;;;;;;12.80;65.74;101412.25;5035106;28;20541;-68
2021/06/13 04:53:19;;;;;;;6.60;2.00;;;;;;;12.95;65.36;101404.34;5017752;28;20173;-68
2021/06/13 04:55:50;;;;;;;6.80;2.00;;;;;;;12.92;65.73;101412.53;5035494;28;20168;-68
2021/06/13 04:58:25;;;;;;;10.53;2.27;;;;;;;12.75;65.63;101422.34;5034964;28;20207;-67
2021/06/13 05:00:50;;;;;;;8.77;2.17;;;;;;;12.97;65.19;101422.06;5035169;28;20176;-68
2021/06/13 05:03:16;;;;;;;5.73;2.17;;;;;;;12.88;65.92;101413.66;5035400;28;20262;-68
2021/06/13 05:05:41;;;;;;;6.93;2.20;;;;;;;12.89;65.66;101410.91;5017448;28;20267;-68
2021/06/13 05:08:06;;;;;;;9.43;2.23;;;;;;;12.88;65.53;101417.19;5035012;28;20275;-68
2021/06/13 05:10:32;;;;;;;6.83;1.77;;;;;;;12.90;65.77;101430.50;5035471;28;20287;-68
2021/06/13 05:12:57;;;;;;;9.47;2.10;;;;;;;12.80;65.68;101438.19;5017919;28;20172;-67
2021/06/13 05:15:23;;;;;;;9.90;2.33;;;;;;;13.05;65.01;101427.03;5034988;28;20204;-68
2021/06/13 05:17:48;;;;;;;7.50;2.10;;;;;;;13.14;65.10;101432.75;5034840;28;20617;-68
2021/06/13 05:20:14;;;;;;;8.47;2.10;;;;;;;13.25;64.22;101431.34;5035122;28;20179;-68
2021/06/13 05:22:50;;;;;;;7.23;2.47;;;;;;;13.35;64.00;101437.91;5017201;28;20191;-68
2021/06/13 05:25:16;;;;;;;8.63;2.10;;;;;;;13.38;63.05;101444.00;5016932;28;20176;-68
2021/06/13 05:27:42;;;;;;;9.50;1.70;;;;;;;13.54;62.29;101433.28;5034197;28;20211;-68
2021/06/13 05:30:07;;;;;;;8.10;1.90;;;;;;;13.53;62.13;101444.09;5034513;28;20253;-68
2021/06/13 05:32:33;;;;;;;9.53;2.23;;;;;;;13.46;61.76;101432.84;5034573;28;20176;-68
2021/06/13 05:34:58;;;;;;;8.50;2.10;;;;;;;13.54;60.70;101443.16;5035085;28;20176;-68
2021/06/13 05:37:23;;;;;;;5.60;1.43;;;;;;;13.52;61.18;101437.88;5016908;28;20648;-68
2021/06/13 05:39:49;;;;;;;9.67;2.27;;;;;;;13.65;59.93;101424.63;5034624;28;20180;-68
2021/06/13 05:42:14;;;;;;;8.43;2.00;;;;;;;13.56;61.04;101457.34;5034549;28;20169;-68
2021/06/13 05:44:39;;;;;;;5.97;2.10;;;;;;;13.79;59.93;101448.00;5034672;28;20179;-68
2021/06/13 05:47:04;;;;;;;6.73;1.77;;;;;;;13.90;59.84;101442.88;5034344;28;20196;-68
2021/06/13 05:49:30;;;;;;;6.23;1.97;;;;;;;13.76;60.10;101444.56;5034535;28;20660;-68
2021/06/13 05:51:55;;;;;;;5.13;1.73;;;;;;;14.12;58.82;101432.63;5016762;28;20203;-68
2021/06/13 05:54:20;;;;;;;6.30;2.27;;;;;;;13.96;58.44;101438.03;5034506;28;20267;-68
2021/06/13 05:56:45;;;;;;;7.30;1.90;;;;;;;13.96;58.47;101435.34;5016249;28;20176;-67
2021/06/13 05:59:11;;;;;;;5.70;1.87;;;;;;;13.96;58.24;101451.44;5016669;28;20157;-68
2021/06/13 06:01:36;;;;;;;5.47;2.10;;;;;;;13.94;58.95;101452.50;5034087;28;20231;-67
2021/06/13 06:04:01;;;;;;;7.13;1.43;;;;;;;13.74;57.79;101442.88;5033974;28;20168;-68
2021/06/13 06:06:27;;;;;;;6.17;1.60;;;;;;;13.70;58.39;101455.59;5033937;28;20183;-68
2021/06/13 06:08:52;;;;;;;9.27;1.97;;;;;;;13.87;57.99;101454.66;5016230;28;20196;-68
2021/06/13 06:11:17;;;;;;;11.90;2.60;;;;;;;14.17;57.66;101460.09;5016072;28;20568;-68
2021/06/13 06:13:42;;;;;;;7.90;2.00;;;;;;;14.47;56.80;101464.63;5033917;28;20545;-68
2021/06/13 06:16:08;;;;;;;6.60;2.00;;;;;;;14.35;56.10;101464.38;5034016;28;20172;-68
2021/06/13 06:18:33;;;;;;;9.03;2.20;;;;;;;14.37;55.59;101461.59;5034096;28;20234;-68
2021/06/13 06:20:58;;;;;;;8.20;2.50;;;;;;;14.32;55.93;101461.88;5033725;28;20217;-68
2021/06/13 06:23:24;;;;;;;10.97;2.37;;;;;;;14.60;55.21;101458.47;5034042;28;20172;-69
2021/06/13 06:25:49;;;;;;;6.93;1.80;;;;;;;14.55;55.47;101460.56;5034043;28;20313;-69
2021/06/13 06:28:15;;;;;;;9.03;2.03;;;;;;;14.32;56.12;101475.31;5033627;28;20196;-69
2021/06/13 06:30:40;;;;;;;9.50;2.10;;;;;;;14.43;55.05;101463.97;5033863;28;20617;-69
2021/06/13 06:33:05;;;;;;;5.33;1.97;;;;;;;14.45;54.48;101464.72;5033684;28;20199;-69
2021/06/13 06:35:31;;;;;;;8.27;2.10;;;;;;;14.46;54.02;101487.94;5033513;28;20176;-68
2021/06/13 06:37:56;;;;;;;5.97;2.03;;;;;;;14.52;53.95;101476.00;5015547;28;20664;-68
2021/06/13 06:40:22;;;;;;;6.33;1.73;;;;;;;14.62;54.27;101480.72;5033579;28;20259;-69
2021/06/13 06:42:47;;;;;;;7.07;2.43;;;;;;;14.89;53.59;101480.03;5016077;28;20181;-69
2021/06/13 06:45:13;;;;;;;7.63;1.83;;;;;;;15.05;53.49;101491.56;5033455;28;20179;-69
2021/06/13 06:47:40;;;;;;;6.37;1.97;;;;;;;15.62;52.12;101495.19;5033373;28;20522;-68
2021/06/13 06:50:06;;;;;;;7.83;2.30;;;;;;;15.53;52.45;101498.41;5033761;28;20202;-69
2021/06/13 06:52:31;;;;;;;5.30;1.73;;;;;;;15.40;51.17;101502.84;5033522;28;20183;-69
2021/06/13 06:54:58;;;;;;;6.20;1.70;;;;;;;15.38;51.68;101494.00;5033501;28;20536;-69
2021/06/13 06:57:24;;;;;;;4.93;1.77;;;;;;;15.23;50.21;101492.25;5033091;28;20330;-69
2021/06/13 06:59:49;;;;;;;3.40;1.70;;;;;;;14.65;50.29;101487.75;5015641;28;20587;-69
2021/06/13 07:02:14;;;;;;;9.17;2.27;;;;;;;14.77;50.66;101487.00;5033978;28;20644;-68
2021/06/13 07:04:39;;;;;;;6.90;1.93;;;;;;;15.04;51.09;101500.59;5033051;28;20214;-69
2021/06/13 07:07:05;;;;;;;5.73;2.00;;;;;;;15.08;51.64;101502.16;5033691;28;20204;-69
2021/06/13 07:09:30;;;;;;;4.87;1.90;;;;;;;15.34;50.81;101508.63;5033016;28;20580;-69
2021/06/13 07:11:55;;;;;;;5.63;1.97;;;;;;;15.43;48.42;101510.72;5032856;28;20245;-69
2021/06/13 07:14:21;;;;;;;7.37;2.00;;;;;;;15.45;48.26;101521.38;5033282;28;20180;-69
2021/06/13 07:16:46;;;;;;;5.30;1.53;;;;;;;15.54;48.28;101518.13;5033202;28;20168;-69
2021/06/13 07:19:11;;;;;;;6.53;2.37;;;;;;;15.59;46.76;101526.78;5032975;28;20184;-69
2021/06/13 07:21:37;;;;;;;3.37;1.70;;;;;;;15.62;45.93;101532.00;5032865;28;20545;-69
2021/06/13 07:24:02;;;;;;;4.10;1.70;;;;;;;15.94;45.54;101541.56;5033221;28;20536;-69
2021/06/13 07:26:27;;;;;;;6.17;2.00;;;;;;;15.79;45.54;101537.16;5033259;28;20208;-69
2021/06/13 07:28:52;;;;;;;4.73;1.57;;;;;;;15.97;46.18;101536.94;5032913;28;20628;-69
2021/06/13 07:31:19;;;;;;;4.73;2.20;;;;;;;15.57;47.53;101536.75;5032699;28;20196;-69
2021/06/13 07:33:44;;;;;;;4.67;2.00;;;;;;;15.42;47.99;101546.66;5032677;28;20173;-68
2021/06/13 07:36:09;;;;;;;5.37;1.83;;;;;;;15.54;48.37;101540.50;5015146;28;20518;-68
2021/06/13 07:38:35;;;;;;;9.33;2.17;;;;;;;15.46;48.63;101552.72;5032797;28;20192;-69
2021/06/13 07:41:00;;;;;;;7.70;2.50;;;;;;;15.75;48.15;101556.31;5032969;28;20187;-68
2021/06/13 07:43:25;;;;;;;5.53;2.00;;;;;;;15.69;49.18;101562.94;5032984;28;20628;-69
2021/06/13 07:45:52;;;;;;;8.07;2.17;;;;;;;15.67;50.28;101570.25;5032678;28;20180;-68
2021/06/13 07:48:17;;;;;;;5.97;1.90;;;;;;;15.75;50.84;101567.06;5032625;28;20560;-68
2021/06/13 07:50:43;;;;;;;8.70;1.97;;;;;;;15.99;49.68;101570.06;5018342;28;20207;-69
2021/06/13 07:53:10;;;;;;;7.90;1.80;;;;;;;16.03;49.51;101574.28;5036790;28;20175;-68
2021/06/13 07:55:35;;;;;;;6.60;1.70;;;;;;;15.54;51.42;101577.31;5018840;28;20175;-68
2021/06/13 07:58:01;;;;;;;6.80;1.87;;;;;;;15.79;51.00;101574.00;5019950;28;20220;-68
2021/06/13 08:00:26;;;;;;;7.93;2.00;;;;;;;15.55;52.20;101581.72;5036274;28;20164;-68
2021/06/13 08:02:52;;;;;;;9.47;2.57;;;;;;;15.42;52.91;101592.38;5036603;28;20180;-69
2021/06/13 08:05:25;;;;;;;6.90;1.93;;;;;;;15.41;52.86;101585.28;5036530;28;20211;-68
2021/06/13 08:07:51;;;;;;;5.70;2.00;;;;;;;15.23;52.64;101586.38;5036403;28;20277;-68
2021/06/13 08:10:17;;;;;;;11.10;2.00;;;;;;;15.70;51.69;101586.19;5036290;28;20203;-68
2021/06/13 08:12:42;;;;;;;6.50;2.40;;;;;;;15.59;52.16;101589.53;5036615;28;20172;-68
2021/06/13 08:15:08;;;;;;;11.97;2.63;;;;;;;15.73;52.19;101588.69;5018509;28;20243;-69
2021/06/13 08:17:33;;;;;;;9.90;2.30;;;;;;;15.29;53.30;101588.72;5035800;28;20211;-68
2021/06/13 08:19:58;;;;;;;8.87;2.70;;;;;;;15.14;52.92;101597.69;5036538;28;20165;-68
2021/06/13 08:22:24;;;;;;;8.47;2.40;;;;;;;15.18;53.33;101589.34;5036035;28;20175;-69
2021/06/13 08:24:49;;;;;;;9.20;2.53;;;;;;;15.29;53.26;101586.91;5036280;28;20183;-68
2021/06/13 08:27:14;;;;;;;10.40;2.30;;;;;;;14.71;55.07;101602.91;5036009;28;20280;-68
2021/06/13 08:29:41;;;;;;;7.20;2.70;;;;;;;15.24;54.30;101609.66;5035993;28;20265;-68
2021/06/13 08:32:07;;;;;;;15.30;2.93;;;;;;;15.46;53.94;101620.81;5018365;28;20565;-68
2021/06/13 08:34:33;;;;;;;10.33;2.40;;;;;;;15.45;51.84;101615.53;5018257;28;20175;-68
2021/06/13 08:36:58;;;;;;;7.50;2.33;;;;;;;16.04;51.73;101622.63;5035809;28;20278;-68
2021/06/13 08:39:23;;;;;;;5.63;2.27;;;;;;;16.13;50.60;101622.03;5036469;28;20180;-68
2021/06/13 08:41:48;;;;;;;8.40;2.63;;;;;;;16.14;50.20;101623.78;5035992;28;20226;-69
2021/06/13 08:44:15;;;;;;;6.40;2.73;;;;;;;16.23;49.81;101623.19;5035526;28;20643;-68
2021/06/13 08:46:41;;;;;;;6.37;2.80;;;;;;;16.41;49.65;101626.53;5035456;28;20196;-69
2021/06/13 08:49:07;;;;;;;9.47;3.27;;;;;;;16.40;50.20;101619.41;5017934;28;20629;-69
2021/06/13 08:51:33;;;;;;;6.87;2.33;;;;;;;16.71;47.55;101623.69;5017661;28;20203;-69
2021/06/13 08:53:59;;;;;;;4.63;2.10;;;;;;;16.65;47.61;101620.50;5035948;28;20672;-69
2021/06/13 08:56:24;;;;;;;7.53;2.47;;;;;;;15.81;50.03;101629.44;5035865;28;20203;-69
2021/06/13 08:58:50;;;;;;;10.93;2.53;;;;;;;15.92;50.04;101635.03;5035314;28;20227;-69
2021/06/13 09:01:16;;;;;;;7.27;2.30;;;;;;;16.17;50.28;101638.88;5016465;28;20168;-69
2021/06/13 09:03:42;;;;;;;8.63;2.67;;;;;;;16.27;50.62;101646.25;5035795;28;20616;-69
2021/06/13 09:06:09;;;;;;;7.17;2.20;;;;;;;16.35;49.97;101640.38;5018261;28;20173;-69
2021/06/13 09:08:39;;;;;;;8.43;2.30;;;;;;;16.10;50.55;101643.78;5035180;28;20192;-69
2021/06/13 09:11:06;;;;;;;6.70;2.17;;;;;;;15.98;51.07;101644.53;5017651;28;20645;-69
2021/06/13 09:13:34;;;;;;;7.43;1.97;;;;;;;15.57;52.77;101649.75;5017410;28;20179;-69
2021/06/13 09:16:01;;;;;;;6.87;2.00;;;;;;;16.17;52.03;101665.81;5035481;28;20168;-68
2021/06/13 09:18:40;;;;;;;8.23;2.47;;;;;;;16.73;50.59;101658.66;5017253;28;20196;-69
2021/06/13 09:21:20;;;;;;;7.33;3.20;;;;;;;16.75;50.71;101671.06;5035295;28;20525;-69
2021/06/13 09:23:46;;;;;;;7.20;2.50;;;;;;;16.74;49.78;101672.03;5017290;28;20172;-69
2021/06/13 09:26:16;;;;;;;8.07;2.30;;;;;;;16.19;52.23;101658.50;5017963;28;20183;-69
2021/06/13 09:28:43;;;;;;;10.70;3.90;;;;;;;16.48;51.53;101672.81;5017598;28;20223;-70
2021/06/13 09:31:29;;;;;;;8.80;3.00;;;;;;;16.51;51.99;101676.16;5034713;28;20275;-70
2021/06/13 09:33:56;;;;;;;12.73;3.63;;;;;;;15.89;52.90;101678.28;5035041;28;20671;-69
2021/06/13 09:36:25;;;;;;;5.77;2.60;;;;;;;15.87;52.11;101680.22;5017023;28;20175;-69
2021/06/13 09:39:04;;;;;;;6.53;2.17;;;;;;;15.95;52.19;101685.97;5016985;28;20219;-69
2021/06/13 09:41:29;;;;;;;11.90;3.17;;;;;;;16.04;52.03;101681.88;5017773;28;20214;-69
2021/06/13 09:43:57;;;;;;;7.83;2.70;;;;;;;16.26;51.59;101695.72;5034772;28;20173;-68
2021/06/13 09:46:27;;;;;;;7.43;2.80;;;;;;;17.02;50.00;101698.00;5016767;28;20176;-68
2021/06/13 09:49:06;;;;;;;11.60;3.20;;;;;;;16.82;49.14;101709.25;5034382;28;20276;-69
2021/06/13 09:51:53;;;;;;;8.70;2.70;;;;;;;16.99;49.17;101703.59;5034999;28;20196;-68
2021/06/13 09:54:23;;;;;;;8.20;3.90;;;;;;;16.65;50.20;101701.34;5034418;28;20203;-68
2021/06/13 09:56:49;;;;;;;9.23;3.00;;;;;;;16.02;52.73;101710.72;5016934;28;20214;-69
2021/06/13 09:59:17;;;;;;;10.27;2.97;;;;;;;16.58;49.71;101720.63;5034749;28;20156;-68
2021/06/13 10:01:48;;;;;;;6.27;2.50;;;;;;;16.56;50.69;101727.94;5034784;28;20251;-69
2021/06/13 10:04:27;;;;;;;6.50;2.73;;;;;;;16.84;49.63;101728.91;5034498;28;20152;-69
2021/06/13 10:06:53;;;;;;;7.77;3.67;;;;;;;16.95;49.30;101726.34;5034534;28;20203;-69
2021/06/13 10:09:22;;;;;;;8.63;3.07;;;;;;;17.09;48.17;101720.91;5034297;28;20199;-69
2021/06/13 10:11:50;;;;;;;12.20;3.43;;;;;;;16.44;50.06;101725.16;5033382;28;20200;-69
2021/06/13 10:14:17;;;;;;;9.73;2.83;;;;;;;16.13;51.00;101718.13;5016158;28;20210;-69
2021/06/13 10:16:51;;;;;;;6.87;3.33;;;;;;;16.19;50.85;101715.91;5033861;28;20184;-69
2021/06/13 10:19:16;;;;;;;7.27;4.03;;;;;;;16.61;49.78;101716.00;5033734;28;20645;-69
2021/06/13 10:21:53;;;;;;;5.47;3.00;;;;;;;16.53;49.87;101733.53;5033994;28;20188;-69
2021/06/13 10:24:21;;;;;;;7.00;3.53;;;;;;;17.05;49.07;101729.31;5033864;28;20202;-69
2021/06/13 10:26:50;;;;;;;12.07;4.27;;;;;;;16.79;49.61;101742.69;5016094;28;20183;-69
2021/06/13 10:29:16;;;;;;;11.53;4.70;;;;;;;16.24;50.28;101737.19;5016303;28;20234;-70
2021/06/13 10:31:45;;;;;;;12.83;4.70;;;;;;;16.35;50.19;101733.81;5033413;28;20196;-69
2021/06/13 10:34:10;;;;;;;7.50;3.70;;;;;;;16.97;46.80;101747.81;5033884;28;20172;-69
2021/06/13 10:36:38;;;;;;;11.17;4.33;;;;;;;17.07;47.72;101736.31;5033321;28;20199;-69
2021/06/13 10:39:05;;;;;;;13.20;4.87;;;;;;;16.45;48.42;101743.06;4999352;28;20188;-69
2021/06/13 10:41:30;;;;;;;9.17;4.30;;;;;;;17.23;46.40;101757.78;5033508;28;20168;-70
2021/06/13 10:44:02;;;;;;;11.03;4.77;;;;;;;17.67;46.15;101746.72;5033442;28;20226;-69
2021/06/13 10:46:28;;;;;;;14.07;5.90;;;;;;;18.17;45.81;101741.47;5016201;28;20699;-69
2021/06/13 10:48:56;;;;;;;13.20;5.40;;;;;;;18.40;44.55;101741.59;4999288;28;20291;-69
2021/06/13 10:51:38;;;;;;;12.90;5.77;;;;;;;17.88;46.31;101751.63;5016215;28;20208;-69
2021/06/13 10:54:33;;;;;;;8.10;4.50;;;;;;;18.23;45.87;101746.47;5033365;28;20247;-69
2021/06/13 10:57:08;;;;;;;11.37;5.07;;;;;;;17.74;46.18;101731.81;5033373;28;20200;-69
2021/06/13 10:59:35;;;;;;;15.33;5.17;;;;;;;17.08;49.58;101742.59;5033401;28;20180;-69
2021/06/13 11:02:14;;;;;;;9.83;5.40;;;;;;;17.50;47.11;101739.75;5033371;28;20196;-68
2021/06/13 11:05:01;;;;;;;13.37;4.90;;;;;;;16.58;50.14;101744.88;5033759;28;20227;-69
2021/06/13 11:07:29;;;;;;;11.20;5.80;;;;;;;16.57;50.40;101748.53;5033268;28;20240;-70
2021/06/13 11:12:52;;;;;;;14.03;5.70;;;;;;;16.52;50.73;101742.56;5033888;28;20192;-68
2021/06/13 11:15:26;;;;;;;10.80;4.97;;;;;;;16.35;51.68;101742.75;5033150;28;20167;-69
2021/06/13 11:17:58;;;;;;;10.83;6.00;;;;;;;15.69;53.50;101750.47;5033129;28;20192;-69
2021/06/13 11:20:31;;;;;;;11.03;5.80;;;;;;;15.97;52.25;101761.28;5033533;28;20168;-69
2021/06/13 11:22:57;;;;;;;13.20;5.87;;;;;;;16.25;52.28;101765.84;5033654;28;20544;-69
2021/06/13 11:25:27;;;;;;;15.20;5.63;;;;;;;16.76;50.68;101777.91;5018672;28;20175;-68
2021/06/13 11:28:15;;;;;;;16.77;6.10;;;;;;;17.30;50.07;101774.41;5037212;28;20200;-68
2021/06/13 11:30:46;;;;;;;11.00;6.10;;;;;;;17.69;49.13;101765.50;5036763;28;20202;-68